createdAt,value
2017-06-02T00:02:27.943Z,79.50
2017-06-02T00:04:56.939Z,79.30
2017-06-02T00:07:25.993Z,78.30
2017-06-02T00:09:54.995Z,79.50
2017-06-02T00:12:23.983Z,79.70
2017-06-02T00:14:52.991Z,80.00
2017-06-02T00:17:21.970Z,79.90
2017-06-02T00:19:50.957Z,80.50
2017-06-02T00:22:19.784Z,80.20
2017-06-02T00:24:48.780Z,80.90
2017-06-02T00:27:17.777Z,81.20
2017-06-02T00:29:46.797Z,81.80
2017-06-02T00:32:15.794Z,82.00
2017-06-02T00:34:44.778Z,82.40
2017-06-02T00:37:13.781Z,81.70
2017-06-02T00:39:42.762Z,82.50
2017-06-02T00:42:11.766Z,82.60
2017-06-02T00:44:40.786Z,83.30
2017-06-02T00:47:09.808Z,82.50
2017-06-02T00:49:38.809Z,83.40
2017-06-02T00:52:07.834Z,82.60
2017-06-02T00:54:36.840Z,83.60
2017-06-02T00:57:05.828Z,83.90
2017-06-02T00:59:34.880Z,83.50
2017-06-02T01:02:03.883Z,82.20
2017-06-02T01:04:32.873Z,83.00
2017-06-02T01:07:01.887Z,83.70
2017-06-02T01:09:30.891Z,83.70
2017-06-02T01:11:59.885Z,83.80
2017-06-02T01:14:28.894Z,83.90
2017-06-02T01:16:57.894Z,84.20
2017-06-02T01:19:26.879Z,84.50
2017-06-02T01:21:55.898Z,84.50
2017-06-02T01:24:24.887Z,85.00
2017-06-02T01:26:53.882Z,84.70
2017-06-02T01:29:22.901Z,84.60
2017-06-02T01:31:51.885Z,84.20
2017-06-02T01:34:20.881Z,84.70
2017-06-02T01:36:49.909Z,85.20
2017-06-02T01:39:18.904Z,84.50
2017-06-02T01:41:47.881Z,84.60
2017-06-02T01:44:16.901Z,85.70
2017-06-02T01:46:45.902Z,85.60
2017-06-02T01:49:14.893Z,84.50
2017-06-02T01:51:43.898Z,84.50
2017-06-02T01:54:12.930Z,85.70
2017-06-02T01:56:41.937Z,86.00
2017-06-02T01:59:10.945Z,85.10
2017-06-02T02:01:39.947Z,85.20
2017-06-02T02:04:08.951Z,85.00
2017-06-02T02:06:37.966Z,85.10
2017-06-02T02:09:06.962Z,85.40
2017-06-02T02:11:35.949Z,85.30
2017-06-02T02:14:04.963Z,85.50
2017-06-02T02:16:33.957Z,85.70
2017-06-02T02:19:02.949Z,85.70
2017-06-02T02:21:31.965Z,85.70
2017-06-02T02:24:00.951Z,85.40
2017-06-02T02:26:29.954Z,85.40
2017-06-02T02:28:58.959Z,85.20
2017-06-02T02:31:27.974Z,84.90
2017-06-02T02:33:56.992Z,84.90
2017-06-02T02:36:26.013Z,84.80
2017-06-02T02:38:54.994Z,85.10
2017-06-02T02:41:23.998Z,85.30
2017-06-02T02:43:53.017Z,85.60
2017-06-02T02:46:22.009Z,85.60
2017-06-02T02:48:51.002Z,85.20
2017-06-02T02:51:20.031Z,85.50
2017-06-02T02:53:49.035Z,85.20
2017-06-02T02:56:18.129Z,85.70
2017-06-02T02:58:47.155Z,85.80
2017-06-02T03:01:16.154Z,85.60
2017-06-02T03:03:45.160Z,86.00
2017-06-02T03:06:14.201Z,86.30
2017-06-02T03:08:43.182Z,85.80
2017-06-02T03:11:12.172Z,85.20
2017-06-02T03:13:41.169Z,85.70
2017-06-02T03:16:10.157Z,85.50
2017-06-02T03:18:39.133Z,85.80
2017-06-02T03:21:08.165Z,85.70
2017-06-02T03:23:37.190Z,85.60
2017-06-02T03:26:06.199Z,85.90
2017-06-02T03:28:35.214Z,86.10
2017-06-02T03:31:04.208Z,86.10
2017-06-02T03:33:33.201Z,86.00
2017-06-02T03:36:02.206Z,85.90
2017-06-02T03:38:31.202Z,85.90
2017-06-02T03:41:00.198Z,85.80
2017-06-02T03:43:29.214Z,85.60
2017-06-02T03:45:58.228Z,86.10
2017-06-02T03:48:27.225Z,86.20
2017-06-02T03:50:56.247Z,85.30
2017-06-02T03:53:25.226Z,85.30
2017-06-02T03:55:54.230Z,85.00
2017-06-02T03:58:23.344Z,84.90
2017-06-02T04:00:52.343Z,84.80
2017-06-02T04:03:21.354Z,84.70
2017-06-02T04:05:50.366Z,84.80
2017-06-02T04:08:19.376Z,84.80
2017-06-02T04:10:48.365Z,85.30
2017-06-02T04:13:17.390Z,83.80
2017-06-02T04:15:46.420Z,83.50
2017-06-02T04:18:15.402Z,83.30
2017-06-02T04:20:44.445Z,82.80
2017-06-02T04:23:13.451Z,82.40
2017-06-02T04:25:42.437Z,82.40
2017-06-02T04:28:11.459Z,82.60
2017-06-02T04:30:40.440Z,82.40
2017-06-02T04:33:09.427Z,82.00
2017-06-02T04:35:38.439Z,81.60
2017-06-02T04:38:07.459Z,81.10
2017-06-02T04:40:36.466Z,81.00
2017-06-02T04:43:05.483Z,80.60
2017-06-02T04:45:34.487Z,80.90
2017-06-02T04:48:03.498Z,80.60
2017-06-02T04:50:32.510Z,80.00
2017-06-02T04:53:01.510Z,79.50
2017-06-02T04:55:30.510Z,79.30
2017-06-02T04:57:59.538Z,78.10
2017-06-02T05:00:28.543Z,77.90
2017-06-02T05:02:57.637Z,78.30
2017-06-02T05:05:26.647Z,78.10
2017-06-02T05:07:55.650Z,77.00
2017-06-02T05:10:24.641Z,76.30
2017-06-02T05:12:53.645Z,75.10
2017-06-02T05:15:22.634Z,75.20
2017-06-02T05:17:51.669Z,75.00
2017-06-02T05:20:20.702Z,73.80
2017-06-02T05:22:49.686Z,74.10
2017-06-02T05:25:18.690Z,71.80
2017-06-02T05:27:47.714Z,73.70
2017-06-02T05:30:16.715Z,72.50
2017-06-02T05:32:45.712Z,71.90
2017-06-02T05:35:14.769Z,71.60
2017-06-02T05:37:43.752Z,71.80
2017-06-02T05:40:12.904Z,70.80
2017-06-02T05:42:41.924Z,70.80
2017-06-02T05:45:10.760Z,69.40
2017-06-02T05:47:39.765Z,68.90
2017-06-02T05:50:08.758Z,69.60
2017-06-02T05:52:37.758Z,69.40
2017-06-02T05:55:06.748Z,69.40
2017-06-02T05:57:35.761Z,69.00
2017-06-02T06:00:04.766Z,69.30
2017-06-02T06:02:33.818Z,68.80
2017-06-02T06:05:02.857Z,68.70
2017-06-02T06:07:31.874Z,69.10
2017-06-02T06:10:00.878Z,69.00
2017-06-02T06:12:29.883Z,69.00
2017-06-02T06:14:58.889Z,68.60
2017-06-02T06:17:27.883Z,68.20
2017-06-02T06:19:56.892Z,67.90
2017-06-02T06:22:26.617Z,67.60
2017-06-02T06:24:55.606Z,67.40
2017-06-02T06:27:24.656Z,66.10
2017-06-02T06:29:53.690Z,65.10
2017-06-02T06:32:22.697Z,65.30
2017-06-02T06:34:51.712Z,63.20
2017-06-02T06:37:20.707Z,64.70
2017-06-02T06:39:49.711Z,63.40
2017-06-02T06:42:18.713Z,62.50
2017-06-02T06:44:47.742Z,60.50
2017-06-02T06:47:16.725Z,61.30
2017-06-02T06:49:45.705Z,59.50
2017-06-02T06:52:14.701Z,61.10
2017-06-02T06:54:43.697Z,59.90
2017-06-02T06:57:12.710Z,59.00
2017-06-02T06:59:41.709Z,57.60
2017-06-02T07:02:10.685Z,58.30
2017-06-02T07:04:39.690Z,57.80
2017-06-02T07:07:08.679Z,56.40
2017-06-02T07:09:37.713Z,57.20
2017-06-02T07:12:06.705Z,56.30
2017-06-02T07:14:35.693Z,56.90
2017-06-02T07:17:04.697Z,55.60
2017-06-02T07:19:33.718Z,55.90
2017-06-02T07:22:02.709Z,56.80
2017-06-02T07:24:31.687Z,57.40
2017-06-02T07:27:00.706Z,56.00
2017-06-02T07:29:29.701Z,56.90
2017-06-02T07:31:58.729Z,56.20
2017-06-02T07:34:27.712Z,56.50
2017-06-02T07:36:56.688Z,56.90
2017-06-02T07:39:25.688Z,56.60
2017-06-02T07:41:54.677Z,54.50
2017-06-02T07:44:23.682Z,55.30
2017-06-02T07:46:53.669Z,55.90
2017-06-02T07:49:22.644Z,55.30
2017-06-02T07:51:51.647Z,53.90
2017-06-02T07:54:20.613Z,54.50
2017-06-02T07:56:49.626Z,53.80
2017-06-02T07:59:18.605Z,54.60
2017-06-02T08:01:47.600Z,55.10
2017-06-02T08:04:16.612Z,53.10
2017-06-02T08:06:45.988Z,53.70
2017-06-02T08:09:15.043Z,54.70
2017-06-02T08:11:44.133Z,53.80
2017-06-02T08:14:13.227Z,53.70
2017-06-02T08:16:42.220Z,53.40
2017-06-02T08:19:11.223Z,54.00
2017-06-02T08:21:40.215Z,54.40
2017-06-02T08:24:09.191Z,54.30
2017-06-02T08:26:38.205Z,53.10
2017-06-02T08:29:07.183Z,52.70
2017-06-02T08:31:36.173Z,52.40
2017-06-02T08:34:05.267Z,50.40
2017-06-02T08:36:34.263Z,50.30
2017-06-02T08:39:03.296Z,49.60
2017-06-02T08:41:32.294Z,50.30
2017-06-02T08:44:01.274Z,49.90
2017-06-02T08:46:30.274Z,50.20
2017-06-02T08:48:59.276Z,50.20
2017-06-02T08:51:28.276Z,50.50
2017-06-02T08:53:57.256Z,49.60
2017-06-02T08:56:26.240Z,51.80
2017-06-02T08:58:55.248Z,50.40
2017-06-02T09:01:24.239Z,50.60
2017-06-02T09:03:53.264Z,50.10
2017-06-02T09:06:22.247Z,48.90
2017-06-02T09:08:51.259Z,52.50
2017-06-02T09:11:20.251Z,50.00
2017-06-02T09:13:49.228Z,50.70
2017-06-02T09:16:18.217Z,50.70
2017-06-02T09:18:47.215Z,49.20
2017-06-02T09:21:16.213Z,49.60
2017-06-02T09:23:45.187Z,48.50
2017-06-02T09:26:14.188Z,49.30
2017-06-02T09:28:43.162Z,49.80
2017-06-02T09:31:12.150Z,49.40
2017-06-02T09:33:41.142Z,50.30
2017-06-02T09:36:39.962Z,50.50
2017-06-02T09:39:08.193Z,48.50
2017-06-02T09:41:36.402Z,48.70
2017-06-02T09:44:04.630Z,49.20
2017-06-02T09:46:32.834Z,49.90
2017-06-02T09:49:01.799Z,49.50
2017-06-02T09:51:30.007Z,49.50
2017-06-02T09:53:59.756Z,48.00
2017-06-02T09:56:27.990Z,47.90
2017-06-02T09:58:56.962Z,46.00
2017-06-02T10:01:25.157Z,46.00
2017-06-02T10:03:53.366Z,47.00
2017-06-02T10:06:21.575Z,44.40
2017-06-02T10:08:49.784Z,45.00
2017-06-02T10:11:17.996Z,46.20
2017-06-02T10:13:46.205Z,44.30
2017-06-02T10:16:14.424Z,45.20
2017-06-02T10:18:42.706Z,48.70
2017-06-02T10:21:10.970Z,44.50
2017-06-02T10:23:39.230Z,44.90
2017-06-02T10:26:07.504Z,43.80
2017-06-02T10:28:35.741Z,44.60
2017-06-02T10:31:03.953Z,46.00
2017-06-02T10:33:32.206Z,45.40
2017-06-02T10:36:00.472Z,43.70
2017-06-02T10:38:28.681Z,42.90
2017-06-02T10:40:56.941Z,44.90
2017-06-02T10:43:25.924Z,43.40
2017-06-02T10:45:54.168Z,43.40
2017-06-02T10:48:22.438Z,43.40
2017-06-02T10:50:50.648Z,44.50
2017-06-02T10:53:18.867Z,47.60
2017-06-02T10:55:47.106Z,46.50
2017-06-02T10:58:16.101Z,47.00
2017-06-02T11:00:44.326Z,46.90
2017-06-02T11:03:12.545Z,46.70
2017-06-02T11:05:40.789Z,46.00
2017-06-02T11:08:08.998Z,46.20
2017-06-02T11:10:38.110Z,45.10
2017-06-02T11:13:06.319Z,45.00
2017-06-02T11:15:34.510Z,46.60
2017-06-02T11:18:02.729Z,44.00
2017-06-02T11:20:30.958Z,43.30
2017-06-02T11:22:59.200Z,45.90
2017-06-02T11:25:27.418Z,48.00
2017-06-02T11:27:55.632Z,46.50
2017-06-02T11:30:23.842Z,45.10
2017-06-02T11:32:52.051Z,44.60
2017-06-02T11:35:21.051Z,46.00
2017-06-02T11:37:49.294Z,45.90
2017-06-02T11:40:17.503Z,44.70
2017-06-02T11:42:45.730Z,44.50
2017-06-02T11:45:13.938Z,44.60
2017-06-02T11:47:42.930Z,44.60
2017-06-02T11:50:11.912Z,46.00
2017-06-02T11:55:15.657Z,45.20
2017-06-02T11:57:43.880Z,46.70
2017-06-02T12:00:12.104Z,49.00
2017-06-02T12:02:40.310Z,49.20
2017-06-02T12:05:08.554Z,49.90
2017-06-02T12:07:36.794Z,46.00
2017-06-02T12:10:05.007Z,46.30
2017-06-02T12:12:33.345Z,46.10
2017-06-02T12:15:01.860Z,45.80
2017-06-02T12:17:30.082Z,46.80
2017-06-02T12:19:58.359Z,48.00
2017-06-02T12:22:26.573Z,48.80
2017-06-02T12:24:55.581Z,48.30
2017-06-02T12:27:23.802Z,48.20
2017-06-02T12:29:52.029Z,47.40
2017-06-02T12:32:20.283Z,46.50
2017-06-02T12:34:49.257Z,46.80
2017-06-02T12:37:17.513Z,46.60
2017-06-02T12:39:45.751Z,47.90
2017-06-02T12:42:13.980Z,47.30
2017-06-02T12:44:42.197Z,48.70
2017-06-02T12:47:10.421Z,51.40
2017-06-02T12:49:38.649Z,51.50
2017-06-02T12:52:06.870Z,51.80
2017-06-02T12:54:35.110Z,49.80
2017-06-02T12:57:03.337Z,50.70
2017-06-02T12:59:31.433Z,52.70
2017-06-02T13:01:59.674Z,51.70
2017-06-02T13:04:27.889Z,50.70
2017-06-02T13:06:56.095Z,50.60
2017-06-02T13:09:24.337Z,50.20
2017-06-02T13:11:52.547Z,49.30
2017-06-02T13:14:20.798Z,50.70
2017-06-02T13:16:49.026Z,49.60
2017-06-02T13:19:17.231Z,49.60
2017-06-02T13:21:45.481Z,49.20
2017-06-02T13:24:14.474Z,52.00
2017-06-02T13:26:43.482Z,49.20
2017-06-02T13:29:11.688Z,48.90
2017-06-02T13:31:39.912Z,50.40
2017-06-02T13:34:08.942Z,48.10
2017-06-02T13:36:37.156Z,48.00
2017-06-02T13:39:05.406Z,46.60
2017-06-02T13:41:33.629Z,48.40
2017-06-02T13:44:02.619Z,48.80
2017-06-02T13:46:30.849Z,49.20
2017-06-02T13:48:59.067Z,51.00
2017-06-02T13:51:27.886Z,49.70
2017-06-02T13:53:56.121Z,49.70
2017-06-02T13:56:24.347Z,47.20
2017-06-02T13:58:52.593Z,48.00
2017-06-02T14:01:21.561Z,48.00
2017-06-02T14:03:49.797Z,47.90
2017-06-02T14:06:17.998Z,46.70
2017-06-02T14:08:46.220Z,48.10
2017-06-02T14:11:14.441Z,46.90
2017-06-02T14:13:42.663Z,45.90
2017-06-02T14:16:10.914Z,48.30
2017-06-02T14:18:39.893Z,47.90
2017-06-02T14:21:08.127Z,47.80
2017-06-02T14:23:36.411Z,48.00
2017-06-02T14:26:04.637Z,48.60
2017-06-02T14:28:33.647Z,50.30
2017-06-02T14:31:01.879Z,49.80
2017-06-02T14:33:33.884Z,49.60
2017-06-02T14:36:02.117Z,50.40
2017-06-02T14:38:30.361Z,51.30
2017-06-02T14:40:59.115Z,50.50
2017-06-02T14:43:27.341Z,50.80
2017-06-02T14:45:55.597Z,49.50
2017-06-02T14:48:23.834Z,49.40
2017-06-02T14:50:52.807Z,51.50
2017-06-02T14:53:21.827Z,49.40
2017-06-02T14:55:50.037Z,49.40
2017-06-02T14:58:18.286Z,49.90
2017-06-02T15:00:46.530Z,50.10
2017-06-02T15:03:15.510Z,51.60
2017-06-02T15:05:43.746Z,51.50
2017-06-02T15:08:11.991Z,51.40
2017-06-02T15:10:40.269Z,51.40
2017-06-02T15:13:08.494Z,50.80
2017-06-02T15:15:36.749Z,51.10
2017-06-02T15:18:04.994Z,51.00
2017-06-02T15:20:33.238Z,51.00
2017-06-02T15:23:01.481Z,51.20
2017-06-02T15:25:29.733Z,51.20
2017-06-02T15:27:57.940Z,51.60
2017-06-02T15:30:26.167Z,50.80
2017-06-02T15:32:54.373Z,49.90
2017-06-02T15:35:22.613Z,48.90
2017-06-02T15:37:51.011Z,50.00
2017-06-02T15:40:19.238Z,50.80
2017-06-02T15:42:47.445Z,49.30
2017-06-02T15:45:15.662Z,49.50
2017-06-02T15:47:44.020Z,50.30
2017-06-02T15:50:12.227Z,49.90
2017-06-02T15:52:40.446Z,48.80
2017-06-02T15:55:08.662Z,49.60
2017-06-02T15:57:36.868Z,48.90
2017-06-02T16:00:05.110Z,48.40
2017-06-02T16:02:33.317Z,49.10
2017-06-02T16:05:02.308Z,49.40
2017-06-02T16:07:31.336Z,49.50
2017-06-02T16:09:59.567Z,49.40
2017-06-02T16:12:28.556Z,49.80
2017-06-02T16:14:56.764Z,50.30
2017-06-02T16:17:24.974Z,47.40
2017-06-02T16:19:53.196Z,48.40
2017-06-02T16:22:22.180Z,47.60
2017-06-02T16:24:51.173Z,46.80
2017-06-02T16:27:19.429Z,46.60
2017-06-02T16:29:47.639Z,47.00
2017-06-02T16:32:15.861Z,49.10
2017-06-02T16:34:44.065Z,48.00
2017-06-02T16:37:12.342Z,47.10
2017-06-02T16:39:41.313Z,48.40
2017-06-02T16:42:09.524Z,48.90
2017-06-02T16:44:37.742Z,46.80
2017-06-02T16:47:05.958Z,47.30
2017-06-02T16:49:34.955Z,47.20
2017-06-02T16:52:03.947Z,46.70
2017-06-02T16:54:32.918Z,45.90
2017-06-02T16:57:01.142Z,45.80
2017-06-02T16:59:29.356Z,44.50
2017-06-02T17:01:58.722Z,46.60
2017-06-02T17:04:27.752Z,55.50
2017-06-02T17:06:55.955Z,55.60
2017-06-02T17:09:24.848Z,58.20
2017-06-02T17:11:53.042Z,59.40
2017-06-02T17:14:21.268Z,60.50
2017-06-02T17:16:49.493Z,61.70
2017-06-02T17:19:17.730Z,61.90
2017-06-02T17:21:45.999Z,62.10
2017-06-02T17:24:14.217Z,60.70
2017-06-02T17:26:42.464Z,60.30
2017-06-02T17:29:10.686Z,60.80
2017-06-02T17:31:39.661Z,61.10
2017-06-02T17:34:07.887Z,61.10
2017-06-02T17:36:36.092Z,61.80
2017-06-02T17:41:39.227Z,62.40
2017-06-02T17:44:08.207Z,61.40
2017-06-02T17:46:36.416Z,61.30
2017-06-02T17:49:04.626Z,62.80
2017-06-02T17:51:32.849Z,60.40
2017-06-02T17:54:01.826Z,60.30
2017-06-02T17:56:30.827Z,60.40
2017-06-02T17:58:59.787Z,62.00
2017-06-02T18:01:28.027Z,62.00
2017-06-02T18:03:56.246Z,59.80
2017-06-02T18:06:24.462Z,62.00
2017-06-02T18:08:52.689Z,61.60
2017-06-02T18:11:20.907Z,60.80
2017-06-02T18:13:49.122Z,60.10
2017-06-02T18:16:17.343Z,60.80
2017-06-02T18:18:45.554Z,60.00
2017-06-02T18:21:13.779Z,60.50
2017-06-02T18:23:42.783Z,62.20
2017-06-02T18:26:11.002Z,62.10
2017-06-02T18:28:39.217Z,62.10
2017-06-02T18:31:08.231Z,62.10
2017-06-02T18:33:36.445Z,62.00
2017-06-02T18:36:04.688Z,62.00
2017-06-02T18:38:32.954Z,62.00
2017-06-02T18:41:01.179Z,62.20
2017-06-02T18:43:29.403Z,63.40
2017-06-02T18:45:57.613Z,62.90
2017-06-02T18:48:25.839Z,63.50
2017-06-02T18:50:54.840Z,64.60
2017-06-02T18:53:23.053Z,64.40
2017-06-02T18:55:51.320Z,65.00
2017-06-02T18:58:19.516Z,65.50
2017-06-02T19:00:47.751Z,65.70
2017-06-02T19:03:15.980Z,66.60
2017-06-02T19:05:44.259Z,66.50
2017-06-02T19:08:13.281Z,67.10
2017-06-02T19:10:41.312Z,66.80
2017-06-02T19:13:09.562Z,67.00
2017-06-02T19:15:37.786Z,66.90
2017-06-02T19:18:06.020Z,67.00
2017-06-02T19:20:34.240Z,67.20
2017-06-02T19:23:02.466Z,67.20
2017-06-02T19:25:30.689Z,67.50
2017-06-02T19:27:58.900Z,67.70
2017-06-02T19:30:27.139Z,68.10
2017-06-02T19:32:55.348Z,68.40
2017-06-02T19:35:23.816Z,68.70
2017-06-02T19:37:52.039Z,69.10
2017-06-02T19:40:20.263Z,69.00
2017-06-02T19:42:48.526Z,69.30
2017-06-02T19:45:16.727Z,69.70
2017-06-02T19:47:44.965Z,70.30
2017-06-02T19:50:13.171Z,70.50
2017-06-02T19:52:41.415Z,70.70
2017-06-02T19:55:09.653Z,70.80
2017-06-02T19:57:37.862Z,70.90
2017-06-02T20:00:06.102Z,70.40
2017-06-02T20:02:34.311Z,70.50
2017-06-02T20:05:02.521Z,70.40
2017-06-02T20:07:30.747Z,70.20
2017-06-02T20:09:58.955Z,70.30
2017-06-02T20:12:27.437Z,70.30
2017-06-02T20:14:55.706Z,70.30
2017-06-02T20:17:23.913Z,70.60
2017-06-02T20:19:52.136Z,70.90
2017-06-02T20:22:20.483Z,70.90
2017-06-02T20:24:48.721Z,70.80
2017-06-02T20:27:16.985Z,71.10
2017-06-02T20:29:45.194Z,71.10
2017-06-02T20:32:13.454Z,72.00
2017-06-02T20:34:41.688Z,71.60
2017-06-02T20:37:09.933Z,71.90
2017-06-02T20:39:38.140Z,72.30
2017-06-02T20:42:06.338Z,72.20
2017-06-02T20:44:34.559Z,72.30
2017-06-02T20:47:03.539Z,72.20
2017-06-02T20:49:31.768Z,72.50
2017-06-02T20:51:59.977Z,72.90
2017-06-02T20:54:28.191Z,72.70
2017-06-02T20:56:56.416Z,72.90
2017-06-02T20:59:24.610Z,72.70
2017-06-02T21:01:52.835Z,73.70
2017-06-02T21:04:21.059Z,73.20
2017-06-02T21:06:49.268Z,73.30
2017-06-02T21:09:17.494Z,73.30
2017-06-02T21:11:45.717Z,74.10
2017-06-02T21:14:13.987Z,74.40
2017-06-02T21:16:42.205Z,75.00
2017-06-02T21:19:10.404Z,75.80
2017-06-02T21:21:38.660Z,76.50
2017-06-02T21:24:06.922Z,77.20
2017-06-02T21:26:35.169Z,77.60
2017-06-02T21:29:03.387Z,77.30
2017-06-02T21:31:31.670Z,76.80
2017-06-02T21:33:59.931Z,76.10
2017-06-02T21:36:28.171Z,77.60
2017-06-02T21:38:56.463Z,79.50
2017-06-02T21:41:24.726Z,80.50
2017-06-02T21:43:52.946Z,80.80
2017-06-02T21:46:21.247Z,81.10
2017-06-02T21:48:49.486Z,78.80
2017-06-02T21:51:17.726Z,78.30
2017-06-02T21:53:45.989Z,77.60
2017-06-02T21:56:14.218Z,77.90
2017-06-02T21:58:42.437Z,77.70
2017-06-02T22:01:10.655Z,78.80
2017-06-02T22:03:38.905Z,79.80
2017-06-02T22:06:07.130Z,79.70
2017-06-02T22:08:35.334Z,80.00
2017-06-02T22:11:03.729Z,79.10
2017-06-02T22:13:31.943Z,78.30
2017-06-02T22:16:00.191Z,78.80
2017-06-02T22:18:28.401Z,78.40
2017-06-02T22:20:56.608Z,78.60
2017-06-02T22:23:24.849Z,77.70
2017-06-02T22:25:53.839Z,76.70
2017-06-02T22:28:22.088Z,76.60
2017-06-02T22:30:50.318Z,77.30
2017-06-02T22:33:18.541Z,78.90
2017-06-02T22:35:46.768Z,81.00
2017-06-02T22:38:14.990Z,82.10
2017-06-02T22:40:43.213Z,83.60
2017-06-02T22:43:11.426Z,85.00
2017-06-02T22:45:39.647Z,87.00
2017-06-02T22:48:07.873Z,88.40
2017-06-02T22:50:36.081Z,89.50
2017-06-02T22:53:04.321Z,90.20
2017-06-02T22:55:32.529Z,91.00
2017-06-02T22:58:00.739Z,92.00
2017-06-02T23:00:28.961Z,91.30
2017-06-02T23:02:57.196Z,92.80
2017-06-02T23:05:25.487Z,92.00
2017-06-02T23:07:53.728Z,92.10
2017-06-02T23:10:21.965Z,91.60
2017-06-02T23:12:50.243Z,92.60
2017-06-02T23:15:18.474Z,92.60
2017-06-02T23:17:46.961Z,92.50
2017-06-02T23:20:15.230Z,92.70
2017-06-02T23:22:43.460Z,92.80
2017-06-02T23:25:11.683Z,92.80
2017-06-02T23:27:39.875Z,92.60
2017-06-02T23:30:08.097Z,92.50
2017-06-02T23:32:37.077Z,93.00
2017-06-02T23:35:05.286Z,93.00
2017-06-02T23:37:33.520Z,92.80
2017-06-02T23:40:01.719Z,92.70
2017-06-02T23:42:29.953Z,93.20
2017-06-02T23:44:58.153Z,93.40
2017-06-02T23:47:27.157Z,93.70
2017-06-02T23:49:55.383Z,93.60
2017-06-02T23:52:23.594Z,93.90
2017-06-02T23:54:52.594Z,93.40
2017-06-02T23:57:21.578Z,93.70
2017-06-02T23:59:50.573Z,93.60
